createdAt,value
2017-12-10T00:02:04.433Z,2.20
2017-12-10T00:04:32.080Z,2.20
2017-12-10T00:06:59.644Z,2.20
2017-12-10T00:09:27.520Z,2.20
2017-12-10T00:11:55.093Z,2.20
2017-12-10T00:14:22.825Z,2.20
2017-12-10T00:16:50.484Z,2.20
2017-12-10T00:19:18.030Z,2.20
2017-12-10T00:21:45.657Z,2.20
2017-12-10T00:24:13.230Z,2.20
2017-12-10T00:26:40.817Z,2.20
2017-12-10T00:29:08.413Z,2.20
2017-12-10T00:31:35.966Z,2.20
2017-12-10T00:34:03.594Z,2.20
2017-12-10T00:36:31.157Z,2.20
2017-12-10T00:38:59.053Z,2.20
2017-12-10T00:41:26.600Z,2.20
2017-12-10T00:43:54.156Z,2.10
2017-12-10T00:46:21.725Z,2.10
2017-12-10T00:48:50.010Z,2.10
2017-12-10T00:51:17.645Z,2.10
2017-12-10T00:53:45.193Z,2.10
2017-12-10T00:56:12.789Z,2.10
2017-12-10T00:58:40.352Z,2.10
2017-12-10T01:01:08.045Z,2.00
2017-12-10T01:03:36.735Z,2.00
2017-12-10T01:06:04.307Z,2.00
2017-12-10T01:08:34.930Z,2.00
2017-12-10T01:11:03.262Z,2.00
2017-12-10T01:13:30.812Z,2.00
2017-12-10T01:15:58.521Z,1.90
2017-12-10T01:18:26.113Z,1.90
2017-12-10T01:20:53.731Z,1.90
2017-12-10T01:23:21.351Z,1.90
2017-12-10T01:25:49.190Z,1.90
2017-12-10T01:28:16.805Z,1.90
2017-12-10T01:30:44.375Z,1.90
2017-12-10T01:33:11.933Z,1.90
2017-12-10T01:35:39.493Z,1.90
2017-12-10T01:38:07.530Z,1.90
2017-12-10T01:40:35.134Z,1.90
2017-12-10T01:43:02.682Z,1.90
2017-12-10T01:45:30.268Z,1.90
2017-12-10T01:47:58.597Z,1.90
2017-12-10T01:50:26.241Z,1.80
2017-12-10T01:52:53.838Z,1.80
2017-12-10T01:55:21.729Z,1.80
2017-12-10T01:57:50.053Z,1.80
2017-12-10T02:00:17.641Z,1.80
2017-12-10T02:02:45.241Z,1.80
2017-12-10T02:05:12.794Z,1.80
2017-12-10T02:07:42.440Z,1.80
2017-12-10T02:10:10.279Z,1.80
2017-12-10T02:12:38.593Z,1.80
2017-12-10T02:15:06.176Z,1.80
2017-12-10T02:17:33.758Z,1.80
2017-12-10T02:20:02.605Z,1.70
2017-12-10T02:22:30.922Z,1.70
2017-12-10T02:24:59.234Z,1.70
2017-12-10T02:27:26.822Z,1.70
2017-12-10T02:29:54.385Z,1.70
2017-12-10T02:32:22.010Z,1.70
2017-12-10T02:34:49.629Z,1.70
2017-12-10T02:37:17.488Z,1.70
2017-12-10T02:39:45.046Z,1.60
2017-12-10T02:42:14.426Z,1.60
2017-12-10T02:44:42.045Z,1.60
2017-12-10T02:47:09.649Z,1.60
2017-12-10T02:49:38.429Z,1.60
2017-12-10T02:52:06.046Z,1.60
2017-12-10T02:54:34.401Z,1.50
2017-12-10T02:57:02.034Z,1.50
2017-12-10T02:59:29.593Z,1.50
2017-12-10T03:01:57.193Z,1.50
2017-12-10T03:04:25.577Z,1.50
2017-12-10T03:06:53.518Z,1.50
2017-12-10T03:09:21.109Z,1.50
2017-12-10T03:11:48.680Z,1.50
2017-12-10T03:14:16.355Z,1.50
2017-12-10T03:16:43.950Z,1.40
2017-12-10T03:19:12.009Z,1.40
2017-12-10T03:21:39.561Z,1.40
2017-12-10T03:24:07.169Z,1.40
2017-12-10T03:26:34.804Z,1.40
2017-12-10T03:29:02.513Z,1.40
2017-12-10T03:31:31.866Z,1.40
2017-12-10T03:33:59.541Z,1.40
2017-12-10T03:36:27.076Z,1.40
2017-12-10T03:38:54.701Z,1.40
2017-12-10T03:41:22.258Z,1.40
2017-12-10T03:43:50.619Z,1.40
2017-12-10T03:46:18.207Z,1.40
2017-12-10T03:48:46.053Z,1.40
2017-12-10T03:51:14.433Z,1.40
2017-12-10T03:53:41.997Z,1.40
2017-12-10T03:56:10.364Z,1.40
2017-12-10T03:58:37.920Z,1.40
2017-12-10T04:01:06.605Z,1.40
2017-12-10T04:03:34.954Z,1.40
2017-12-10T04:06:02.789Z,1.40
2017-12-10T04:08:30.385Z,1.40
2017-12-10T04:10:57.949Z,1.40
2017-12-10T04:13:25.602Z,1.50
2017-12-10T04:15:53.157Z,1.40
2017-12-10T04:18:21.145Z,1.40
2017-12-10T04:20:48.707Z,1.40
2017-12-10T04:23:16.276Z,1.40
2017-12-10T04:25:43.945Z,1.40
2017-12-10T04:28:11.518Z,1.40
2017-12-10T04:30:39.891Z,1.40
2017-12-10T04:33:07.465Z,1.40
2017-12-10T04:35:35.469Z,1.40
2017-12-10T04:38:03.022Z,1.40
2017-12-10T04:40:30.639Z,1.40
2017-12-10T04:42:58.316Z,1.40
2017-12-10T04:45:25.901Z,1.40
2017-12-10T04:47:53.807Z,1.40
2017-12-10T04:50:21.393Z,1.40
2017-12-10T04:52:48.971Z,1.40
2017-12-10T04:55:16.603Z,1.30
2017-12-10T04:57:44.941Z,1.30
2017-12-10T05:00:12.546Z,1.30
2017-12-10T05:02:40.866Z,1.30
2017-12-10T05:05:08.700Z,1.30
2017-12-10T05:07:36.249Z,1.20
2017-12-10T05:10:03.801Z,1.20
2017-12-10T05:12:31.461Z,1.20
2017-12-10T05:14:59.813Z,1.20
2017-12-10T05:17:27.676Z,1.20
2017-12-10T05:19:55.233Z,1.20
2017-12-10T05:22:22.790Z,1.20
2017-12-10T05:24:50.387Z,1.20
2017-12-10T05:27:18.717Z,1.20
2017-12-10T05:29:46.602Z,1.20
2017-12-10T05:32:14.185Z,1.20
2017-12-10T05:34:42.598Z,1.30
2017-12-10T05:37:10.270Z,1.20
2017-12-10T05:39:37.853Z,1.30
2017-12-10T05:42:05.425Z,1.30
2017-12-10T05:44:32.986Z,1.30
2017-12-10T05:47:00.948Z,1.20
2017-12-10T05:49:28.537Z,1.30
2017-12-10T05:51:56.868Z,1.20
2017-12-10T05:54:24.481Z,1.20
2017-12-10T05:56:52.042Z,1.20
2017-12-10T05:59:20.672Z,1.20
2017-12-10T06:01:48.280Z,1.10
2017-12-10T06:04:19.430Z,1.10
2017-12-10T06:06:47.010Z,1.10
2017-12-10T06:09:14.629Z,1.10
2017-12-10T06:11:43.009Z,1.10
2017-12-10T06:14:10.576Z,1.00
2017-12-10T06:16:39.214Z,1.00
2017-12-10T06:19:06.812Z,1.00
2017-12-10T06:21:34.803Z,1.00
2017-12-10T06:24:03.700Z,1.00
2017-12-10T06:26:31.925Z,0.90
2017-12-10T06:29:00.034Z,1.00
2017-12-10T06:31:28.852Z,0.90
2017-12-10T06:33:56.945Z,0.90
2017-12-10T06:36:24.525Z,0.90
2017-12-10T06:38:52.122Z,0.90
2017-12-10T06:41:22.581Z,0.90
2017-12-10T06:43:50.191Z,0.80
2017-12-10T06:46:18.717Z,0.90
2017-12-10T06:48:46.401Z,0.80
2017-12-10T06:51:14.044Z,0.80
2017-12-10T06:53:41.624Z,0.80
2017-12-10T06:56:09.201Z,0.80
2017-12-10T06:58:36.801Z,0.80
2017-12-10T07:01:04.386Z,0.80
2017-12-10T07:03:32.369Z,0.80
2017-12-10T07:05:59.927Z,0.80
2017-12-10T07:08:27.473Z,0.80
2017-12-10T07:10:55.061Z,0.80
2017-12-10T07:13:22.622Z,0.70
2017-12-10T07:15:50.493Z,0.80
2017-12-10T07:18:18.086Z,0.80
2017-12-10T07:20:45.674Z,0.80
2017-12-10T07:23:13.263Z,0.70
2017-12-10T07:25:40.834Z,0.80
2017-12-10T07:28:08.437Z,0.80
2017-12-10T07:30:35.994Z,0.80
2017-12-10T07:33:04.106Z,0.80
2017-12-10T07:35:31.668Z,0.80
2017-12-10T07:37:59.206Z,0.80
2017-12-10T07:40:26.817Z,0.90
2017-12-10T07:42:54.493Z,0.90
2017-12-10T07:45:22.108Z,0.90
2017-12-10T07:47:49.709Z,1.00
2017-12-10T07:50:18.557Z,1.10
2017-12-10T07:52:46.120Z,1.10
2017-12-10T07:55:13.690Z,1.10
2017-12-10T07:57:41.270Z,1.20
2017-12-10T08:00:08.882Z,1.20
2017-12-10T08:02:37.393Z,1.30
2017-12-10T08:05:05.020Z,1.30
2017-12-10T08:07:32.700Z,1.40
2017-12-10T08:10:00.347Z,1.50
2017-12-10T08:12:27.930Z,1.60
2017-12-10T08:14:55.561Z,1.70
2017-12-10T08:17:23.164Z,1.70
2017-12-10T08:19:50.778Z,1.80
2017-12-10T08:22:18.342Z,1.90
2017-12-10T08:24:45.990Z,2.00
2017-12-10T08:27:13.539Z,2.10
2017-12-10T08:29:41.712Z,2.20
2017-12-10T08:32:09.310Z,2.30
2017-12-10T08:34:36.937Z,2.40
2017-12-10T08:37:04.540Z,2.40
2017-12-10T08:39:32.167Z,2.50
2017-12-10T08:41:59.817Z,2.70
2017-12-10T08:44:27.402Z,2.80
2017-12-10T08:46:55.063Z,2.90
2017-12-10T08:49:22.821Z,2.80
2017-12-10T08:51:50.933Z,2.70
2017-12-10T08:54:18.500Z,2.60
2017-12-10T08:56:46.081Z,2.60
2017-12-10T08:59:13.902Z,2.60
2017-12-10T09:01:41.481Z,2.50
2017-12-10T09:04:09.070Z,2.50
2017-12-10T09:06:37.404Z,2.50
2017-12-10T09:09:05.569Z,2.50
2017-12-10T09:11:33.444Z,2.50
2017-12-10T09:14:14.037Z,2.50
2017-12-10T09:16:41.816Z,2.50
2017-12-10T09:19:09.450Z,2.50
2017-12-10T09:21:37.267Z,2.60
2017-12-10T09:24:04.946Z,2.60
2017-12-10T09:26:33.735Z,2.60
2017-12-10T09:29:01.416Z,2.60
2017-12-10T09:31:45.664Z,2.70
2017-12-10T09:34:13.276Z,2.70
2017-12-10T09:36:41.128Z,2.80
2017-12-10T09:39:09.458Z,2.90
2017-12-10T09:41:37.087Z,2.90
2017-12-10T09:44:04.768Z,2.90
2017-12-10T09:46:32.411Z,3.00
2017-12-10T09:49:00.061Z,3.00
2017-12-10T09:51:27.669Z,3.00
2017-12-10T09:53:55.291Z,3.00
2017-12-10T09:56:22.846Z,3.00
2017-12-10T09:58:50.484Z,3.00
2017-12-10T10:01:18.810Z,3.00
2017-12-10T10:03:46.763Z,3.00
2017-12-10T10:06:14.378Z,3.00
2017-12-10T10:08:41.979Z,3.00
2017-12-10T10:11:11.436Z,3.00
2017-12-10T10:13:39.065Z,3.00
2017-12-10T10:16:06.685Z,3.00
2017-12-10T10:18:35.001Z,3.10
2017-12-10T10:21:02.993Z,3.10
2017-12-10T10:23:30.596Z,3.20
2017-12-10T10:25:58.146Z,3.20
2017-12-10T10:28:26.526Z,3.30
2017-12-10T10:30:54.093Z,3.30
2017-12-10T10:33:22.464Z,3.30
2017-12-10T10:35:51.244Z,3.40
2017-12-10T10:38:20.102Z,3.40
2017-12-10T10:40:47.696Z,3.40
2017-12-10T10:43:16.052Z,3.40
2017-12-10T10:45:44.728Z,3.40
2017-12-10T10:48:13.953Z,3.30
2017-12-10T10:50:42.450Z,3.30
2017-12-10T10:53:10.003Z,3.30
2017-12-10T10:55:38.373Z,3.10
2017-12-10T10:58:05.962Z,3.10
2017-12-10T11:00:33.974Z,3.00
2017-12-10T11:03:01.547Z,3.00
2017-12-10T11:05:30.388Z,3.00
2017-12-10T11:07:58.010Z,3.00
2017-12-10T11:10:26.373Z,3.20
2017-12-10T11:12:54.001Z,3.20
2017-12-10T11:15:21.569Z,3.30
2017-12-10T11:17:49.428Z,3.30
2017-12-10T11:20:16.990Z,3.40
2017-12-10T11:22:44.598Z,3.50
2017-12-10T11:25:12.249Z,3.50
2017-12-10T11:27:40.188Z,3.50
2017-12-10T11:30:07.861Z,3.40
2017-12-10T11:32:35.428Z,3.40
2017-12-10T11:35:03.021Z,3.40
2017-12-10T11:37:31.397Z,3.30
2017-12-10T11:39:59.441Z,3.30
2017-12-10T11:42:27.027Z,3.40
2017-12-10T11:44:54.658Z,3.40
2017-12-10T11:47:22.710Z,3.40
2017-12-10T11:49:50.320Z,3.50
2017-12-10T11:52:18.018Z,3.50
2017-12-10T11:54:45.602Z,3.60
2017-12-10T11:57:13.366Z,3.60
2017-12-10T11:59:40.998Z,3.60
2017-12-10T12:02:08.850Z,3.50
2017-12-10T12:04:36.456Z,3.50
2017-12-10T12:07:04.142Z,3.50
2017-12-10T12:09:31.826Z,3.50
2017-12-10T12:12:00.186Z,3.40
2017-12-10T12:14:28.586Z,3.40
2017-12-10T12:16:56.223Z,3.40
2017-12-10T12:19:24.155Z,3.40
2017-12-10T12:21:52.487Z,3.30
2017-12-10T12:24:20.556Z,3.30
2017-12-10T12:26:48.980Z,3.30
2017-12-10T12:29:16.694Z,3.30
2017-12-10T12:31:45.090Z,3.30
2017-12-10T12:34:12.687Z,3.30
2017-12-10T12:36:40.573Z,3.30
2017-12-10T12:39:12.700Z,3.20
2017-12-10T12:41:40.348Z,3.20
2017-12-10T12:47:03.077Z,3.20
2017-12-10T12:49:31.412Z,3.20
2017-12-10T12:51:58.982Z,3.20
2017-12-10T12:54:26.582Z,3.20
2017-12-10T12:56:54.990Z,3.20
2017-12-10T12:59:22.667Z,3.20
2017-12-10T13:01:50.251Z,3.10
2017-12-10T13:04:18.647Z,3.10
2017-12-10T13:06:46.253Z,3.10
2017-12-10T13:09:14.259Z,3.10
2017-12-10T13:11:41.920Z,3.00
2017-12-10T13:14:09.470Z,3.00
2017-12-10T13:16:37.130Z,3.00
2017-12-10T13:19:04.747Z,2.90
2017-12-10T13:21:33.445Z,2.90
2017-12-10T13:24:01.044Z,2.90
2017-12-10T13:26:29.140Z,2.90
2017-12-10T13:28:57.735Z,2.80
2017-12-10T13:31:25.286Z,2.80
2017-12-10T13:33:53.724Z,2.80
2017-12-10T13:36:21.508Z,2.70
2017-12-10T13:38:49.565Z,2.70
2017-12-10T13:41:34.910Z,2.70
2017-12-10T13:44:04.412Z,2.70
2017-12-10T13:46:34.251Z,2.60
2017-12-10T13:49:01.880Z,2.60
2017-12-10T13:51:30.242Z,2.60
2017-12-10T13:53:57.816Z,2.60
2017-12-10T13:56:27.012Z,2.60
2017-12-10T13:58:54.606Z,2.60
2017-12-10T14:01:22.210Z,2.60
2017-12-10T14:03:49.818Z,2.60
2017-12-10T14:06:17.391Z,2.50
2017-12-10T14:08:45.021Z,2.60
2017-12-10T14:11:12.606Z,2.50
2017-12-10T14:13:40.694Z,2.50
2017-12-10T14:16:08.331Z,2.50
2017-12-10T14:18:36.012Z,2.50
2017-12-10T14:21:04.742Z,2.50
2017-12-10T14:23:33.428Z,2.50
2017-12-10T14:26:01.863Z,2.50
2017-12-10T14:28:30.385Z,2.50
2017-12-10T14:30:58.891Z,2.50
2017-12-10T14:33:26.452Z,2.50
2017-12-10T14:35:54.839Z,2.50
2017-12-10T14:38:22.506Z,2.50
2017-12-10T14:40:50.112Z,2.50
2017-12-10T14:43:17.732Z,2.50
2017-12-10T14:45:45.352Z,2.50
2017-12-10T14:48:13.320Z,2.50
2017-12-10T14:50:42.047Z,2.50
2017-12-10T14:53:09.671Z,2.50
2017-12-10T14:55:38.014Z,2.50
2017-12-10T14:58:05.605Z,2.50
2017-12-10T15:00:34.229Z,2.40
2017-12-10T15:03:01.802Z,2.40
2017-12-10T15:05:29.416Z,2.40
2017-12-10T15:07:57.773Z,2.20
2017-12-10T15:10:25.460Z,2.20
2017-12-10T15:12:53.018Z,2.10
2017-12-10T15:15:21.390Z,1.90
2017-12-10T15:17:49.028Z,1.90
2017-12-10T15:20:16.622Z,1.90
2017-12-10T15:22:45.003Z,1.80
2017-12-10T15:25:12.592Z,1.70
2017-12-10T15:27:40.246Z,1.70
2017-12-10T15:30:07.842Z,1.70
2017-12-10T15:32:35.574Z,1.60
2017-12-10T15:35:03.158Z,1.60
2017-12-10T15:37:30.801Z,1.60
2017-12-10T15:39:58.473Z,1.60
2017-12-10T15:42:26.108Z,1.50
2017-12-10T15:44:53.746Z,1.50
2017-12-10T15:47:21.335Z,1.50
2017-12-10T15:49:49.050Z,1.40
2017-12-10T15:52:16.677Z,1.40
2017-12-10T15:54:44.574Z,1.40
2017-12-10T15:57:12.170Z,1.40
2017-12-10T15:59:39.738Z,1.40
2017-12-10T16:02:07.421Z,1.40
2017-12-10T16:04:35.019Z,1.30
2017-12-10T16:07:02.680Z,1.40
2017-12-10T16:09:30.298Z,1.40
2017-12-10T16:11:57.932Z,1.40
2017-12-10T16:14:25.510Z,1.30
2017-12-10T16:16:53.098Z,1.30
2017-12-10T16:19:20.753Z,1.30
2017-12-10T16:21:48.370Z,1.30
2017-12-10T16:24:16.023Z,1.30
2017-12-10T16:26:44.366Z,1.30
2017-12-10T16:29:12.030Z,1.30
2017-12-10T16:31:39.613Z,1.40
2017-12-10T16:34:07.269Z,1.40
2017-12-10T16:36:34.855Z,1.40
2017-12-10T16:39:02.496Z,1.40
2017-12-10T16:41:31.021Z,1.40
2017-12-10T16:43:58.598Z,1.40
2017-12-10T16:46:26.219Z,1.40
2017-12-10T16:48:54.671Z,1.40
2017-12-10T16:51:23.120Z,1.40
2017-12-10T16:53:50.762Z,1.40
2017-12-10T16:56:18.455Z,1.40
2017-12-10T16:58:46.086Z,1.40
2017-12-10T17:01:13.674Z,1.40
2017-12-10T17:03:41.285Z,1.50
2017-12-10T17:06:08.889Z,1.50
2017-12-10T17:08:36.454Z,1.50
2017-12-10T17:11:04.138Z,1.50
2017-12-10T17:13:32.746Z,1.50
2017-12-10T17:16:00.397Z,1.50
2017-12-10T17:18:28.776Z,1.50
2017-12-10T17:20:56.353Z,1.50
2017-12-10T17:23:25.534Z,1.50
2017-12-10T17:25:53.117Z,1.50
2017-12-10T17:28:21.669Z,1.50
2017-12-10T17:30:49.334Z,1.60
2017-12-10T17:33:17.722Z,1.60
2017-12-10T17:35:46.227Z,1.60
2017-12-10T17:38:13.812Z,1.60
2017-12-10T17:40:42.269Z,1.60
2017-12-10T17:43:09.936Z,1.60
2017-12-10T17:45:37.684Z,1.60
2017-12-10T17:48:05.367Z,1.60
2017-12-10T17:50:33.890Z,1.70
2017-12-10T17:53:01.530Z,1.70
2017-12-10T17:55:29.238Z,1.80
2017-12-10T17:57:58.386Z,1.80
2017-12-10T18:00:26.854Z,1.80
2017-12-10T18:02:54.511Z,1.90
2017-12-10T18:05:22.174Z,1.90
2017-12-10T18:07:49.942Z,2.00
2017-12-10T18:10:17.529Z,2.00
2017-12-10T18:12:46.122Z,2.10
2017-12-10T18:15:13.722Z,2.10
2017-12-10T18:17:41.299Z,2.10
2017-12-10T18:20:09.027Z,2.20
2017-12-10T18:22:37.398Z,2.30
2017-12-10T18:25:05.027Z,2.30
2017-12-10T18:27:32.626Z,2.30
2017-12-10T18:30:01.596Z,2.30
2017-12-10T18:32:29.204Z,2.30
2017-12-10T18:34:56.879Z,2.30
2017-12-10T18:37:24.496Z,2.30
2017-12-10T18:39:52.859Z,2.20
2017-12-10T18:42:20.438Z,2.20
2017-12-10T18:44:48.850Z,2.20
2017-12-10T18:47:16.922Z,2.10
2017-12-10T18:49:44.532Z,2.10
2017-12-10T18:52:12.114Z,2.10
2017-12-10T18:54:40.498Z,2.20
2017-12-10T18:57:08.527Z,2.20
2017-12-10T18:59:36.205Z,2.20
2017-12-10T19:02:03.796Z,2.20
2017-12-10T19:04:31.409Z,2.30
2017-12-10T19:06:59.090Z,2.30
2017-12-10T19:09:27.452Z,2.40
2017-12-10T19:11:55.088Z,2.40
2017-12-10T19:14:22.734Z,2.40
2017-12-10T19:16:50.426Z,2.50
2017-12-10T19:19:18.162Z,2.60
2017-12-10T19:21:46.081Z,2.60
2017-12-10T19:24:13.780Z,2.70
2017-12-10T19:26:41.361Z,2.70
2017-12-10T19:29:09.028Z,2.80
2017-12-10T19:31:36.709Z,2.80
2017-12-10T19:34:04.274Z,2.80
2017-12-10T19:36:31.959Z,2.90
2017-12-10T19:39:00.082Z,2.90
2017-12-10T19:41:27.724Z,3.00
2017-12-10T19:43:55.283Z,3.00
2017-12-10T19:46:22.966Z,3.10
2017-12-10T19:48:50.557Z,3.10
2017-12-10T19:51:18.198Z,3.20
2017-12-10T19:53:45.802Z,3.20
2017-12-10T19:56:13.451Z,3.30
2017-12-10T19:58:41.017Z,3.30
2017-12-10T20:01:09.361Z,3.40
2017-12-10T20:03:36.962Z,3.40
2017-12-10T20:06:05.277Z,3.50
2017-12-10T20:08:32.906Z,3.50
2017-12-10T20:11:00.499Z,3.50
2017-12-10T20:13:28.154Z,3.60
2017-12-10T20:15:55.840Z,3.60
2017-12-10T20:18:23.490Z,3.70
2017-12-10T20:20:51.114Z,3.70
2017-12-10T20:23:18.730Z,3.70
2017-12-10T20:25:46.678Z,3.80
2017-12-10T20:28:14.545Z,3.80
2017-12-10T20:30:42.138Z,3.80
2017-12-10T20:33:09.729Z,3.80
2017-12-10T20:35:38.094Z,3.80
2017-12-10T20:38:05.856Z,3.90
2017-12-10T20:40:34.185Z,3.90
2017-12-10T20:43:01.854Z,3.90
2017-12-10T20:45:29.519Z,3.90
2017-12-10T20:47:57.183Z,3.90
2017-12-10T20:50:24.854Z,3.90
2017-12-10T20:52:52.694Z,3.80
2017-12-10T20:55:20.298Z,3.80
2017-12-10T20:57:47.928Z,3.80
2017-12-10T21:00:25.498Z,3.70
2017-12-10T21:02:53.141Z,3.70
2017-12-10T21:05:21.565Z,3.70
2017-12-10T21:07:49.178Z,3.70
2017-12-10T21:10:17.013Z,3.70
2017-12-10T21:12:44.665Z,3.80
2017-12-10T21:15:12.229Z,3.80
2017-12-10T21:17:40.638Z,3.80
2017-12-10T21:20:08.378Z,3.80
2017-12-10T21:22:35.966Z,3.90
2017-12-10T21:25:05.864Z,3.90
2017-12-10T21:27:33.521Z,4.00
2017-12-10T21:30:01.237Z,4.00
2017-12-10T21:32:29.629Z,4.10
2017-12-10T21:34:57.211Z,4.00
2017-12-10T21:37:24.832Z,4.10
2017-12-10T21:39:52.456Z,4.20
2017-12-10T21:42:20.947Z,4.40
2017-12-10T21:44:48.617Z,4.40
2017-12-10T21:47:16.242Z,4.40
2017-12-10T21:49:44.508Z,4.40
2017-12-10T21:52:12.120Z,4.50
2017-12-10T21:54:39.767Z,4.60
2017-12-10T21:57:07.444Z,4.60
2017-12-10T21:59:35.130Z,4.60
2017-12-10T22:02:02.771Z,4.70
2017-12-10T22:04:30.580Z,4.70
2017-12-10T22:06:58.261Z,4.70
2017-12-10T22:09:26.645Z,4.80
2017-12-10T22:11:54.487Z,4.80
2017-12-10T22:14:22.106Z,4.80
2017-12-10T22:16:49.714Z,4.70
2017-12-10T22:19:17.909Z,4.70
2017-12-10T22:21:46.321Z,4.80
2017-12-10T22:24:13.965Z,4.70
2017-12-10T22:26:41.566Z,4.80
2017-12-10T22:29:09.937Z,4.80
2017-12-10T22:31:37.536Z,4.80
2017-12-10T22:34:05.238Z,4.80
2017-12-10T22:36:32.800Z,4.80
2017-12-10T22:39:00.393Z,4.80
2017-12-10T22:41:28.064Z,4.90
2017-12-10T22:43:55.657Z,5.00
2017-12-10T22:46:24.910Z,5.00
2017-12-10T22:48:52.538Z,5.00
2017-12-10T22:51:20.299Z,5.00
2017-12-10T22:53:47.974Z,5.00
2017-12-10T22:56:15.556Z,5.10
2017-12-10T22:58:43.920Z,5.10
2017-12-10T23:01:11.496Z,5.10
2017-12-10T23:03:39.137Z,5.10
2017-12-10T23:06:06.728Z,5.10
2017-12-10T23:08:34.358Z,5.10
2017-12-10T23:11:01.943Z,5.10
2017-12-10T23:13:41.489Z,5.10
2017-12-10T23:16:20.927Z,5.10
2017-12-10T23:18:48.572Z,5.10
2017-12-10T23:21:16.146Z,5.20
2017-12-10T23:23:43.708Z,5.10
2017-12-10T23:26:11.311Z,5.10
2017-12-10T23:28:38.921Z,5.20
2017-12-10T23:31:06.517Z,5.20
2017-12-10T23:33:34.847Z,5.20
2017-12-10T23:36:02.429Z,5.10
2017-12-10T23:38:30.022Z,5.20
2017-12-10T23:40:57.646Z,5.20
2017-12-10T23:43:25.221Z,5.20
2017-12-10T23:45:52.831Z,5.20
2017-12-10T23:48:20.452Z,5.20
2017-12-10T23:50:48.792Z,5.30
2017-12-10T23:53:16.401Z,5.30
2017-12-10T23:55:44.790Z,5.30
2017-12-10T23:58:12.365Z,5.20
